createdAt,value
2022-09-01T00:01:39.264Z,19.80
2022-09-01T00:04:08.919Z,19.80
2022-09-01T00:06:40.081Z,19.80
2022-09-01T00:09:09.625Z,19.80
2022-09-01T00:11:37.512Z,19.80
2022-09-01T00:14:06.805Z,19.70
2022-09-01T00:16:51.773Z,19.70
2022-09-01T00:19:19.707Z,19.70
2022-09-01T00:21:47.610Z,19.60
2022-09-01T00:24:16.262Z,19.50
2022-09-01T00:26:44.376Z,19.50
2022-09-01T00:29:12.444Z,19.50
2022-09-01T00:31:40.818Z,19.40
2022-09-01T00:34:10.117Z,19.30
2022-09-01T00:36:38.003Z,19.30
2022-09-01T00:39:06.333Z,19.30
2022-09-01T00:41:35.414Z,19.30
2022-09-01T00:44:05.489Z,19.20
2022-09-01T00:46:36.523Z,19.20
2022-09-01T00:49:13.811Z,19.20
2022-09-01T00:51:43.996Z,19.10
2022-09-01T00:54:13.736Z,19.00
2022-09-01T00:56:42.049Z,19.00
2022-09-01T00:59:14.688Z,19.00
2022-09-01T01:01:42.535Z,19.00
2022-09-01T01:04:14.846Z,18.90
2022-09-01T01:06:49.746Z,18.90
2022-09-01T01:09:17.793Z,18.90
2022-09-01T01:11:47.577Z,18.90
2022-09-01T01:14:17.374Z,18.80
2022-09-01T01:16:46.747Z,18.70
2022-09-01T01:19:39.084Z,18.80
2022-09-01T01:22:28.084Z,18.70
2022-09-01T01:24:58.358Z,18.70
2022-09-01T01:27:26.235Z,18.70
2022-09-01T01:29:55.333Z,18.60
2022-09-01T01:35:55.347Z,18.60
2022-09-01T01:38:23.376Z,18.60
2022-09-01T01:40:53.797Z,18.60
2022-09-01T01:43:21.938Z,18.50
2022-09-01T01:45:52.151Z,18.40
2022-09-01T01:48:22.857Z,18.40
2022-09-01T01:50:51.125Z,18.40
2022-09-01T01:53:19.702Z,18.40
2022-09-01T01:55:49.611Z,18.30
2022-09-01T01:58:19.942Z,18.20
2022-09-01T02:00:49.013Z,18.20
2022-09-01T02:03:19.084Z,18.20
2022-09-01T02:05:47.149Z,18.20
2022-09-01T02:08:16.394Z,18.20
2022-09-01T02:10:46.033Z,18.10
2022-09-01T02:13:16.827Z,18.10
2022-09-01T02:15:47.220Z,18.10
2022-09-01T02:18:17.333Z,18.10
2022-09-01T02:20:45.423Z,18.00
2022-09-01T02:23:15.204Z,18.00
2022-09-01T02:26:14.104Z,18.00
2022-09-01T02:28:36.829Z,18.00
2022-09-01T02:31:08.954Z,18.00
2022-09-01T02:33:39.182Z,17.90
2022-09-01T02:36:08.453Z,17.90
2022-09-01T02:38:36.554Z,17.90
2022-09-01T02:41:07.987Z,17.90
2022-09-01T02:43:35.946Z,17.80
2022-09-01T02:46:07.555Z,17.80
2022-09-01T02:48:38.032Z,17.90
2022-09-01T02:51:07.110Z,17.90
2022-09-01T02:53:35.498Z,17.90
2022-09-01T02:56:03.684Z,17.80
2022-09-01T02:58:34.093Z,17.80
2022-09-01T03:01:02.853Z,17.70
2022-09-01T03:03:33.110Z,17.80
2022-09-01T03:06:01.408Z,17.80
2022-09-01T03:08:34.370Z,17.70
2022-09-01T03:11:03.008Z,17.70
2022-09-01T03:13:31.286Z,17.70
2022-09-01T03:15:59.088Z,17.70
2022-09-01T03:18:26.937Z,17.70
2022-09-01T03:20:56.243Z,17.60
2022-09-01T03:23:25.348Z,17.60
2022-09-01T03:25:53.265Z,17.60
2022-09-01T03:28:21.307Z,17.50
2022-09-01T03:30:50.419Z,17.40
2022-09-01T03:33:18.826Z,17.50
2022-09-01T03:35:47.006Z,17.40
2022-09-01T03:38:21.994Z,17.40
2022-09-01T03:40:51.294Z,17.30
2022-09-01T03:43:20.032Z,17.20
2022-09-01T03:45:48.056Z,17.20
2022-09-01T03:48:17.060Z,17.10
2022-09-01T03:50:47.155Z,17.10
2022-09-01T03:53:17.593Z,17.00
2022-09-01T03:55:46.254Z,17.00
2022-09-01T03:58:18.937Z,17.00
2022-09-01T04:00:49.301Z,16.90
2022-09-01T04:03:28.534Z,16.90
2022-09-01T04:05:57.017Z,16.80
2022-09-01T04:08:32.279Z,16.80
2022-09-01T04:11:02.882Z,16.70
2022-09-01T04:13:32.055Z,16.70
2022-09-01T04:16:00.044Z,16.70
2022-09-01T04:18:27.024Z,16.60
2022-09-01T04:20:56.854Z,16.50
2022-09-01T04:23:27.520Z,16.50
2022-09-01T04:25:56.722Z,16.40
2022-09-01T04:28:26.242Z,16.40
2022-09-01T04:30:55.944Z,16.30
2022-09-01T04:33:24.660Z,16.30
2022-09-01T04:35:56.679Z,16.30
2022-09-01T04:38:26.252Z,16.20
2022-09-01T04:40:57.309Z,16.20
2022-09-01T04:43:25.805Z,16.20
2022-09-01T04:45:53.789Z,16.10
2022-09-01T04:48:22.231Z,16.10
2022-09-01T04:50:52.058Z,16.10
2022-09-01T04:53:20.376Z,16.10
2022-09-01T04:55:50.297Z,16.00
2022-09-01T04:58:18.673Z,15.90
2022-09-01T05:00:48.137Z,15.90
2022-09-01T05:03:17.078Z,15.90
2022-09-01T05:05:46.033Z,15.90
2022-09-01T05:08:23.225Z,15.90
2022-09-01T05:10:55.729Z,15.80
2022-09-01T05:13:24.312Z,15.70
2022-09-01T05:16:01.943Z,15.70
2022-09-01T05:18:30.164Z,15.70
2022-09-01T05:20:58.049Z,15.70
2022-09-01T05:23:26.733Z,15.70
2022-09-01T05:25:56.313Z,15.70
2022-09-01T05:28:27.118Z,15.70
2022-09-01T05:30:55.171Z,15.70
2022-09-01T05:33:23.470Z,15.70
2022-09-01T05:35:55.515Z,15.70
2022-09-01T05:38:24.248Z,15.70
2022-09-01T05:40:59.013Z,15.70
2022-09-01T05:43:27.854Z,15.70
2022-09-01T05:46:06.710Z,15.80
2022-09-01T05:48:40.180Z,15.80
2022-09-01T05:51:22.446Z,15.80
2022-09-01T05:53:58.945Z,15.70
2022-09-01T05:56:29.021Z,15.70
2022-09-01T06:01:50.426Z,15.70
2022-09-01T06:04:19.020Z,15.70
2022-09-01T06:07:06.804Z,15.70
2022-09-01T06:09:38.199Z,15.80
2022-09-01T06:12:09.258Z,15.90
2022-09-01T06:14:37.161Z,16.00
2022-09-01T06:17:06.699Z,16.10
2022-09-01T06:19:37.345Z,16.20
2022-09-01T06:22:05.545Z,16.30
2022-09-01T06:24:33.557Z,16.30
2022-09-01T06:27:01.386Z,16.40
2022-09-01T06:29:31.380Z,16.40
2022-09-01T06:32:02.297Z,16.50
2022-09-01T06:34:30.264Z,16.60
2022-09-01T06:36:58.136Z,16.70
2022-09-01T06:39:26.604Z,16.90
2022-09-01T06:41:54.868Z,17.00
2022-09-01T06:44:23.461Z,17.10
2022-09-01T06:46:53.297Z,17.30
2022-09-01T06:49:21.741Z,17.50
2022-09-01T06:51:49.783Z,17.70
2022-09-01T06:54:21.153Z,17.90
2022-09-01T06:56:51.750Z,18.20
2022-09-01T06:59:20.629Z,18.30
2022-09-01T07:01:49.862Z,18.20
2022-09-01T07:04:21.415Z,18.20
2022-09-01T07:06:59.674Z,18.40
2022-09-01T07:09:47.947Z,18.50
2022-09-01T07:12:26.998Z,18.80
2022-09-01T07:17:44.949Z,19.20
2022-09-01T07:20:23.471Z,19.60
2022-09-01T07:23:07.615Z,19.80
2022-09-01T07:26:00.666Z,19.90
2022-09-01T07:31:49.650Z,20.50
2022-09-01T07:38:48.050Z,20.80
2022-09-01T07:39:51.538Z,21.00
2022-09-01T07:42:55.573Z,20.20
2022-09-01T07:45:26.133Z,21.70
2022-09-01T07:47:54.817Z,22.20
2022-09-01T07:51:34.356Z,22.30
2022-09-01T07:53:18.361Z,22.60
2022-09-01T07:55:46.891Z,23.10
2022-09-01T07:58:15.123Z,23.20
2022-09-01T08:00:43.628Z,23.40
2022-09-01T08:03:11.749Z,23.30
2022-09-01T08:05:39.617Z,23.50
2022-09-01T08:08:18.558Z,23.60
2022-09-01T08:10:49.419Z,23.90
2022-09-01T08:13:20.004Z,23.80
2022-09-01T08:18:53.331Z,24.10
2022-09-01T08:21:23.488Z,24.70
2022-09-01T08:23:51.891Z,24.90
2022-09-01T08:26:22.595Z,25.10
2022-09-01T08:28:54.971Z,25.40
2022-09-01T08:31:24.575Z,25.40
2022-09-01T08:33:52.634Z,25.30
2022-09-01T08:36:23.994Z,25.50
2022-09-01T08:38:53.065Z,25.80
2022-09-01T08:41:28.671Z,25.80
2022-09-01T08:44:01.834Z,26.20
2022-09-01T08:46:31.205Z,26.30
2022-09-01T08:51:51.300Z,26.90
2022-09-01T08:54:29.376Z,27.00
2022-09-01T08:57:00.284Z,27.00
2022-09-01T08:59:28.746Z,27.10
2022-09-01T09:02:01.023Z,27.20
2022-09-01T09:04:36.273Z,27.70
2022-09-01T09:07:07.431Z,27.80
2022-09-01T09:09:38.774Z,27.90
2022-09-01T09:12:17.219Z,28.40
2022-09-01T09:14:50.666Z,28.80
2022-09-01T09:17:20.916Z,28.80
2022-09-01T09:19:48.827Z,28.90
2022-09-01T09:22:17.831Z,28.90
2022-09-01T09:24:50.983Z,29.00
2022-09-01T09:27:22.027Z,28.60
2022-09-01T09:29:52.259Z,29.00
2022-09-01T09:32:35.124Z,28.70
2022-09-01T09:35:19.218Z,29.40
2022-09-01T09:37:47.130Z,29.70
2022-09-01T09:40:16.189Z,30.10
2022-09-01T09:43:02.532Z,29.80
2022-09-01T09:45:33.895Z,29.50
2022-09-01T09:48:05.764Z,30.10
2022-09-01T09:50:34.892Z,29.90
2022-09-01T09:53:14.188Z,30.00
2022-09-01T09:55:56.074Z,30.50
2022-09-01T09:58:26.933Z,30.90
2022-09-01T10:01:03.770Z,31.20
2022-09-01T10:03:39.327Z,30.90
2022-09-01T10:06:11.464Z,31.00
2022-09-01T10:08:44.821Z,31.20
2022-09-01T10:11:27.959Z,30.90
2022-09-01T10:13:59.320Z,31.10
2022-09-01T10:16:32.046Z,30.80
2022-09-01T10:19:01.859Z,31.30
2022-09-01T10:21:32.945Z,31.60
2022-09-01T10:24:17.745Z,31.90
2022-09-01T10:26:52.097Z,32.10
2022-09-01T10:29:22.945Z,32.20
2022-09-01T10:31:59.421Z,32.00
2022-09-01T10:34:42.138Z,32.20
2022-09-01T10:37:11.735Z,31.40
2022-09-01T10:39:54.845Z,31.80
2022-09-01T10:42:22.662Z,32.40
2022-09-01T10:44:58.580Z,32.60
2022-09-01T10:47:28.087Z,33.10
2022-09-01T10:50:07.464Z,32.70
2022-09-01T10:52:56.063Z,32.90
2022-09-01T10:55:25.580Z,33.20
2022-09-01T10:58:08.469Z,32.70
2022-09-01T11:04:00.525Z,33.30
2022-09-01T11:09:38.818Z,33.70
2022-09-01T11:12:29.416Z,33.30
2022-09-01T11:14:59.009Z,34.00
2022-09-01T11:17:28.778Z,33.70
2022-09-01T11:19:59.197Z,34.30
2022-09-01T11:22:32.685Z,34.60
2022-09-01T11:25:19.541Z,33.90
2022-09-01T11:27:58.347Z,34.30
2022-09-01T11:30:32.359Z,34.40
2022-09-01T11:33:04.910Z,34.80
2022-09-01T11:35:32.984Z,34.10
2022-09-01T11:38:04.443Z,35.00
2022-09-01T11:40:33.188Z,34.50
2022-09-01T11:43:05.272Z,34.60
2022-09-01T11:45:34.749Z,34.90
2022-09-01T11:48:07.319Z,34.90
2022-09-01T11:50:36.251Z,34.30
2022-09-01T11:53:05.902Z,35.50
2022-09-01T11:55:35.672Z,36.10
2022-09-01T11:58:04.045Z,35.90
2022-09-01T12:00:33.124Z,35.80
2022-09-01T12:03:01.068Z,35.40
2022-09-01T12:05:32.069Z,35.80
2022-09-01T12:08:00.778Z,35.80
2022-09-01T12:10:31.670Z,35.70
2022-09-01T12:13:03.235Z,34.60
2022-09-01T12:15:31.321Z,34.10
2022-09-01T12:18:10.494Z,33.90
2022-09-01T12:20:39.993Z,34.10
2022-09-01T12:23:17.808Z,34.60
2022-09-01T12:25:46.385Z,34.70
2022-09-01T12:28:14.805Z,34.60
2022-09-01T12:30:45.312Z,34.40
2022-09-01T12:33:29.323Z,35.10
2022-09-01T12:36:12.072Z,35.00
2022-09-01T12:38:41.394Z,34.20
2022-09-01T12:43:56.467Z,34.70
2022-09-01T12:46:48.460Z,35.10
2022-09-01T12:49:20.614Z,35.10
2022-09-01T12:51:48.737Z,35.60
2022-09-01T12:54:25.841Z,35.50
2022-09-01T12:56:53.818Z,35.90
2022-09-01T12:59:35.794Z,35.90
2022-09-01T13:02:23.424Z,36.00
2022-09-01T13:04:51.736Z,36.60
2022-09-01T13:07:19.620Z,36.40
2022-09-01T13:09:48.815Z,36.60
2022-09-01T13:12:18.139Z,36.40
2022-09-01T13:14:46.186Z,35.30
2022-09-01T13:17:14.896Z,34.90
2022-09-01T13:19:43.184Z,34.10
2022-09-01T13:22:11.453Z,34.00
2022-09-01T13:24:40.024Z,34.70
2022-09-01T13:27:24.666Z,35.40
2022-09-01T13:29:52.582Z,35.30
2022-09-01T13:32:22.005Z,35.70
2022-09-01T13:34:51.753Z,35.90
2022-09-01T13:37:20.585Z,35.80
2022-09-01T13:39:48.679Z,35.30
2022-09-01T13:42:18.405Z,35.70
2022-09-01T13:44:48.554Z,35.90
2022-09-01T13:47:34.286Z,35.00
2022-09-01T13:50:08.394Z,35.80
2022-09-01T13:52:38.684Z,35.00
2022-09-01T13:55:07.458Z,35.50
2022-09-01T13:57:37.028Z,34.60
2022-09-01T14:00:07.459Z,35.10
2022-09-01T14:02:35.372Z,34.90
2022-09-01T14:05:03.236Z,34.70
2022-09-01T14:07:32.405Z,35.10
2022-09-01T14:10:00.400Z,35.40
2022-09-01T14:12:28.578Z,35.40
2022-09-01T14:15:17.126Z,35.60
2022-09-01T14:17:46.823Z,35.60
2022-09-01T14:20:16.227Z,35.10
2022-09-01T14:22:44.157Z,34.80
2022-09-01T14:25:12.384Z,34.80
2022-09-01T14:27:41.079Z,34.00
2022-09-01T14:30:12.438Z,34.10
2022-09-01T14:32:40.287Z,34.30
2022-09-01T14:35:09.147Z,34.70
2022-09-01T14:37:37.988Z,34.60
2022-09-01T14:40:07.271Z,34.30
2022-09-01T14:42:37.122Z,34.20
2022-09-01T14:45:05.048Z,33.50
2022-09-01T14:47:34.488Z,33.60
2022-09-01T14:50:02.793Z,34.00
2022-09-01T14:52:31.031Z,34.00
2022-09-01T14:54:59.611Z,34.10
2022-09-01T14:57:29.437Z,33.80
2022-09-01T14:59:59.635Z,33.50
2022-09-01T15:02:29.213Z,33.70
2022-09-01T15:04:58.397Z,33.60
2022-09-01T15:07:26.455Z,33.90
2022-09-01T15:09:54.297Z,34.10
2022-09-01T15:12:22.500Z,33.70
2022-09-01T15:14:50.727Z,33.60
2022-09-01T15:17:18.616Z,33.60
2022-09-01T15:19:46.508Z,33.70
2022-09-01T15:22:16.391Z,33.60
2022-09-01T15:24:44.583Z,33.70
2022-09-01T15:27:12.485Z,33.90
2022-09-01T15:29:47.836Z,33.70
2022-09-01T15:32:27.629Z,33.40
2022-09-01T15:34:56.373Z,33.40
2022-09-01T15:37:25.627Z,33.30
2022-09-01T15:39:53.576Z,33.00
2022-09-01T15:42:21.863Z,32.90
2022-09-01T15:44:49.961Z,32.60
2022-09-01T15:47:17.850Z,32.80
2022-09-01T15:49:45.928Z,32.70
2022-09-01T15:52:15.294Z,32.80
2022-09-01T15:54:44.551Z,32.30
2022-09-01T15:57:12.532Z,31.70
2022-09-01T15:59:43.073Z,31.10
2022-09-01T16:02:15.240Z,30.30
2022-09-01T16:04:43.160Z,30.00
2022-09-01T16:07:11.124Z,30.50
2022-09-01T16:09:39.232Z,30.30
2022-09-01T16:12:09.258Z,30.30
2022-09-01T16:14:37.087Z,30.70
2022-09-01T16:17:06.727Z,30.70
2022-09-01T16:19:39.004Z,30.60
2022-09-01T16:22:13.006Z,30.60
2022-09-01T16:24:42.415Z,30.40
2022-09-01T16:27:13.192Z,30.40
2022-09-01T16:29:45.312Z,30.60
2022-09-01T16:32:14.271Z,30.50
2022-09-01T16:34:46.720Z,30.30
2022-09-01T16:37:20.788Z,30.10
2022-09-01T16:39:50.621Z,30.00
2022-09-01T16:42:27.284Z,30.10
2022-09-01T16:45:02.945Z,30.10
2022-09-01T16:47:35.519Z,30.20
2022-09-01T16:50:08.436Z,30.10
2022-09-01T16:52:41.909Z,29.80
2022-09-01T16:55:16.318Z,29.60
2022-09-01T16:57:49.948Z,29.60
2022-09-01T17:00:28.813Z,29.40
2022-09-01T17:03:02.682Z,29.30
2022-09-01T17:05:34.564Z,29.30
2022-09-01T17:08:08.326Z,29.20
2022-09-01T17:10:40.787Z,29.10
2022-09-01T17:13:17.223Z,29.00
2022-09-01T17:15:48.144Z,29.00
2022-09-01T17:18:22.294Z,28.90
2022-09-01T17:20:57.990Z,28.80
2022-09-01T17:23:28.956Z,28.70
2022-09-01T17:26:01.654Z,28.60
2022-09-01T17:28:33.910Z,28.40
2022-09-01T17:31:04.853Z,28.30
2022-09-01T17:33:40.428Z,28.20
2022-09-01T17:36:13.901Z,28.20
2022-09-01T17:38:51.499Z,28.10
2022-09-01T17:41:23.483Z,28.10
2022-09-01T17:43:57.664Z,28.00
2022-09-01T17:46:28.935Z,27.90
2022-09-01T17:49:01.884Z,27.80
2022-09-01T17:51:31.417Z,27.70
2022-09-01T17:54:06.322Z,27.60
2022-09-01T17:56:42.388Z,27.40
2022-09-01T17:59:15.630Z,27.40
2022-09-01T18:01:50.470Z,27.20
2022-09-01T18:04:31.791Z,27.10
2022-09-01T18:07:02.442Z,27.00
2022-09-01T18:09:32.936Z,26.80
2022-09-01T18:12:02.492Z,26.70
2022-09-01T18:14:35.816Z,26.60
2022-09-01T18:17:05.415Z,26.40
2022-09-01T18:19:36.218Z,26.30
2022-09-01T18:22:06.228Z,26.20
2022-09-01T18:24:36.484Z,26.10
2022-09-01T18:27:04.521Z,25.90
2022-09-01T18:29:33.765Z,25.80
2022-09-01T18:32:09.147Z,25.70
2022-09-01T18:34:41.889Z,25.60
2022-09-01T18:37:11.815Z,25.40
2022-09-01T18:39:44.981Z,25.30
2022-09-01T18:42:17.793Z,25.10
2022-09-01T18:44:52.643Z,25.00
2022-09-01T18:47:27.597Z,24.90
2022-09-01T18:49:59.323Z,24.70
2022-09-01T18:52:46.734Z,24.60
2022-09-01T18:55:17.417Z,24.50
2022-09-01T18:57:48.463Z,24.40
2022-09-01T19:00:19.514Z,24.30
2022-09-01T19:03:11.197Z,24.20
2022-09-01T19:05:52.148Z,24.00
2022-09-01T19:08:25.144Z,23.90
2022-09-01T19:10:56.890Z,23.90
2022-09-01T19:13:33.604Z,23.70
2022-09-01T19:16:06.534Z,23.60
2022-09-01T19:18:39.911Z,23.50
2022-09-01T19:21:09.451Z,23.40
2022-09-01T19:23:41.528Z,23.40
2022-09-01T19:26:12.509Z,23.30
2022-09-01T19:28:43.101Z,23.30
2022-09-01T19:31:18.148Z,23.10
2022-09-01T19:33:47.825Z,23.00
2022-09-01T19:36:18.957Z,22.90
2022-09-01T19:38:47.709Z,22.80
2022-09-01T19:41:19.553Z,22.80
2022-09-01T19:43:49.510Z,22.80
2022-09-01T19:46:22.392Z,22.70
2022-09-01T19:48:52.804Z,22.60
2022-09-01T19:51:23.113Z,22.50
2022-09-01T19:53:54.829Z,22.50
2022-09-01T19:56:26.728Z,22.40
2022-09-01T19:58:57.454Z,22.30
2022-09-01T20:01:35.486Z,22.10
2022-09-01T20:04:06.225Z,22.00
2022-09-01T20:06:35.623Z,22.00
2022-09-01T20:09:08.259Z,21.90
2022-09-01T20:11:43.206Z,22.00
2022-09-01T20:14:20.280Z,21.80
2022-09-01T20:16:51.432Z,21.70
2022-09-01T20:19:27.348Z,21.60
2022-09-01T20:21:55.248Z,21.60
2022-09-01T20:24:27.595Z,21.60
2022-09-01T20:26:59.367Z,21.50
2022-09-01T20:29:29.742Z,21.50
2022-09-01T20:32:00.277Z,21.50
2022-09-01T20:34:30.304Z,21.40
2022-09-01T20:37:01.935Z,21.40
2022-09-01T20:39:52.400Z,21.40
2022-09-01T20:42:22.523Z,21.30
2022-09-01T20:44:52.555Z,21.20
2022-09-01T20:47:22.659Z,21.10
2022-09-01T20:49:50.568Z,21.10
2022-09-01T20:52:24.916Z,21.00
2022-09-01T20:54:54.455Z,20.90
2022-09-01T20:57:28.581Z,20.80
2022-09-01T20:59:57.620Z,20.80
2022-09-01T21:02:43.157Z,20.70
2022-09-01T21:05:20.353Z,20.70
2022-09-01T21:07:53.534Z,20.60
2022-09-01T21:10:24.971Z,20.50
2022-09-01T21:12:57.574Z,20.50
2022-09-01T21:15:31.978Z,20.40
2022-09-01T21:18:06.534Z,20.40
2022-09-01T21:20:40.959Z,20.30
2022-09-01T21:23:08.948Z,20.20
2022-09-01T21:25:36.710Z,20.20
2022-09-01T21:28:06.764Z,20.20
2022-09-01T21:30:35.905Z,20.20
2022-09-01T21:33:05.005Z,20.10
2022-09-01T21:35:33.334Z,20.10
2022-09-01T21:38:02.561Z,20.00
2022-09-01T21:40:30.931Z,19.90
2022-09-01T21:43:00.524Z,19.90
2022-09-01T21:45:28.463Z,19.90
2022-09-01T21:47:56.550Z,19.90
2022-09-01T21:50:25.222Z,19.70
2022-09-01T21:52:53.257Z,19.70
2022-09-01T21:55:23.342Z,19.70
2022-09-01T21:57:51.809Z,19.60
2022-09-01T22:00:20.651Z,19.60
2022-09-01T22:02:48.774Z,19.50
2022-09-01T22:05:16.742Z,19.50
2022-09-01T22:07:45.437Z,19.50
2022-09-01T22:10:14.104Z,19.50
2022-09-01T22:12:44.077Z,19.50
2022-09-01T22:15:12.658Z,19.40
2022-09-01T22:17:40.472Z,19.40
2022-09-01T22:20:09.414Z,19.40
2022-09-01T22:22:37.305Z,19.30
2022-09-01T22:25:06.013Z,19.30
2022-09-01T22:27:33.832Z,19.30
2022-09-01T22:30:03.154Z,19.20
2022-09-01T22:32:36.115Z,19.20
2022-09-01T22:35:04.251Z,19.10
2022-09-01T22:37:32.118Z,19.10
2022-09-01T22:39:59.943Z,19.00
2022-09-01T22:42:27.842Z,19.00
2022-09-01T22:44:55.763Z,19.00
2022-09-01T22:47:25.139Z,18.90
2022-09-01T22:49:54.733Z,18.80
2022-09-01T22:52:22.565Z,18.80
2022-09-01T22:54:50.425Z,18.70
2022-09-01T22:57:18.290Z,18.70
2022-09-01T22:59:46.145Z,18.70
2022-09-01T23:02:14.050Z,18.70
2022-09-01T23:04:43.276Z,18.70
2022-09-01T23:07:11.132Z,18.60
2022-09-01T23:09:39.033Z,18.60
2022-09-01T23:12:07.111Z,18.50
2022-09-01T23:14:34.993Z,18.50
2022-09-01T23:17:02.892Z,18.60
2022-09-01T23:19:30.725Z,18.40
2022-09-01T23:21:59.911Z,18.30
2022-09-01T23:24:27.751Z,18.30
2022-09-01T23:26:56.741Z,18.30
2022-09-01T23:29:25.323Z,18.20
2022-09-01T23:31:53.514Z,18.20
2022-09-01T23:34:21.415Z,18.10
2022-09-01T23:36:49.251Z,18.10
2022-09-01T23:39:18.591Z,18.00
2022-09-01T23:41:47.527Z,18.00
2022-09-01T23:44:16.007Z,18.00
2022-09-01T23:46:44.898Z,18.00
2022-09-01T23:49:14.058Z,17.90
2022-09-01T23:51:41.915Z,17.90
2022-09-01T23:54:10.084Z,17.80
2022-09-01T23:56:39.523Z,18.00
2022-09-01T23:59:07.466Z,17.70
